Time;durP1;ratioP1;P1;durP2;ratioP2;P2;SDS_P1;SDS_P2;PMS_P1;PMS_P2;Temp;Humidity;BMP_temperature;BMP_pressure;BME280_temperature;BME280_humidity;BME280_pressure;Samples;Min_cycle;Max_cycle;Signal;HPM_P1;HPM_P2
2022/01/20 00:00:31;;;;;;;40.73;26.10;;;;;;;1.60;63.22;100357.25;5050518;28;20250;-55
2022/01/20 00:03:00;;;;;;;44.90;26.07;;;;;;;1.56;63.09;100350.25;5050843;28;20203;-55
2022/01/20 00:05:35;;;;;;;42.83;24.93;;;;;;;1.49;63.27;100354.03;5050595;28;20274;-56
2022/01/20 00:08:14;;;;;;;41.47;25.63;;;;;;;1.56;62.58;100351.13;5058832;28;20195;-56
2022/01/20 00:27:12;;;;;;;33.93;23.60;;;;;;;1.48;62.55;100332.03;5090467;28;20577;-57
2022/01/20 00:30:07;;;;;;;41.57;25.77;;;;;;;1.57;63.09;100337.69;5090285;28;20226;-57
2022/01/20 00:32:44;;;;;;;40.87;24.57;;;;;;;1.50;62.78;100338.06;5090489;28;20229;-57
2022/01/20 00:35:20;;;;;;;43.23;26.73;;;;;;;1.50;62.53;100340.59;5090415;28;20193;-57
2022/01/20 00:37:47;;;;;;;37.23;24.27;;;;;;;1.45;62.49;100341.97;5090219;28;20194;-56
2022/01/20 00:40:17;;;;;;;37.20;24.67;;;;;;;1.48;62.85;100332.03;5090400;28;20202;-56
2022/01/20 00:42:44;;;;;;;37.37;24.83;;;;;;;1.55;62.76;100330.75;5090589;28;20187;-56
2022/01/20 00:45:11;;;;;;;45.43;24.97;;;;;;;1.51;62.13;100329.69;5090566;28;20282;-55
2022/01/20 00:47:39;;;;;;;35.80;24.80;;;;;;;1.54;62.51;100332.41;5090090;28;20194;-57
2022/01/20 00:50:08;;;;;;;39.47;23.83;;;;;;;1.55;62.01;100323.16;5090132;28;20211;-55
2022/01/20 00:52:35;;;;;;;35.50;22.90;;;;;;;1.52;62.81;100316.25;5090132;28;20191;-55
2022/01/20 00:55:02;;;;;;;34.43;23.70;;;;;;;1.32;62.24;100275.25;5090094;28;20194;-55
2022/01/20 00:57:30;;;;;;;30.80;22.10;;;;;;;1.55;62.00;100318.97;5090173;28;20575;-55
2022/01/20 00:59:57;;;;;;;42.63;24.77;;;;;;;1.47;62.01;100319.25;5091973;28;20245;-55
2022/01/20 01:02:24;;;;;;;38.10;24.53;;;;;;;1.46;62.26;100313.31;5094338;28;20187;-56
2022/01/20 01:04:51;;;;;;;38.03;24.90;;;;;;;1.49;62.13;100308.47;5094162;28;20191;-55
2022/01/20 01:07:43;;;;;;;32.90;23.70;;;;;;;1.49;62.18;100307.56;5094122;28;20662;-56
2022/01/20 01:10:11;;;;;;;40.50;24.53;;;;;;;1.34;62.14;100284.69;5094193;28;20305;-56
2022/01/20 01:12:47;;;;;;;34.00;22.23;;;;;;;1.43;62.35;100290.34;5093967;28;20191;-55
2022/01/20 01:15:19;;;;;;;37.07;24.73;;;;;;;1.39;62.70;100290.94;5094195;28;20278;-56
2022/01/20 01:20:33;;;;;;;34.83;23.47;;;;;;;1.38;62.32;100283.22;5073770;28;20562;-56
2022/01/20 01:23:00;;;;;;;35.70;23.47;;;;;;;1.31;62.24;100253.25;5073728;28;20196;-56
2022/01/20 01:25:27;;;;;;;35.47;24.33;;;;;;;1.37;62.68;100274.78;5073352;28;20195;-56
2022/01/20 01:27:56;;;;;;;45.83;26.10;;;;;;;1.35;63.19;100278.84;5073215;28;20670;-56
2022/01/20 01:30:44;;;;;;;50.83;31.77;;;;;;;1.23;63.78;100278.06;5073267;28;20563;-56
2022/01/20 01:33:11;;;;;;;44.33;29.07;;;;;;;1.12;64.38;100271.41;5071883;28;20235;-56
2022/01/20 01:35:41;;;;;;;45.90;29.03;;;;;;;1.02;65.08;100261.44;5073544;28;20204;-56
2022/01/20 01:38:35;;;;;;;47.17;29.30;;;;;;;0.95;65.11;100264.38;5072955;28;20191;-56
2022/01/20 01:41:04;;;;;;;43.40;28.53;;;;;;;0.92;65.79;100259.97;5073541;28;20188;-56
2022/01/20 01:43:33;;;;;;;44.87;28.60;;;;;;;0.77;66.52;100251.38;5073472;28;20210;-55
2022/01/20 01:46:01;;;;;;;44.23;27.60;;;;;;;0.67;67.66;100243.06;5073088;28;20206;-55
2022/01/20 01:48:28;;;;;;;46.70;28.17;;;;;;;0.63;67.88;100254.66;5073130;28;20195;-56
2022/01/20 01:50:55;;;;;;;42.97;28.73;;;;;;;0.48;69.10;100253.59;5072808;28;20721;-55
2022/01/20 01:53:23;;;;;;;48.03;29.30;;;;;;;0.26;68.99;100241.16;5073362;28;20245;-55
2022/01/20 01:55:50;;;;;;;44.60;28.07;;;;;;;0.13;69.91;100243.63;5072927;28;20283;-55
2022/01/20 01:58:17;;;;;;;48.83;29.80;;;;;;;0.06;70.12;100238.91;5073073;28;20666;-55
2022/01/20 02:00:46;;;;;;;35.23;24.67;;;;;;;-0.08;70.37;100239.59;5072765;28;20195;-55
2022/01/20 02:03:14;;;;;;;41.07;27.40;;;;;;;-0.23;71.54;100239.44;5072829;28;20278;-55
2022/01/20 02:05:55;;;;;;;35.60;25.17;;;;;;;-0.22;71.91;100243.69;5072794;28;20194;-56
2022/01/20 02:08:29;;;;;;;41.33;24.53;;;;;;;-0.20;71.95;100232.06;5072945;28;20195;-55
2022/01/20 02:19:12;;;;;;;44.00;27.63;;;;;;;-0.41;71.88;100196.88;5052602;28;20291;-56
2022/01/20 02:21:48;;;;;;;37.37;24.87;;;;;;;-0.22;72.41;100222.63;5052587;28;20583;-56
2022/01/20 02:24:16;;;;;;;37.97;25.20;;;;;;;-0.32;73.04;100218.56;5052461;28;20188;-55
2022/01/20 02:26:42;;;;;;;37.70;22.83;;;;;;;-0.36;73.20;100216.63;5052273;28;20180;-55
2022/01/20 02:29:10;;;;;;;45.87;23.10;;;;;;;-0.48;73.89;100224.97;5052047;28;20235;-55
2022/01/20 02:31:37;;;;;;;35.97;23.60;;;;;;;-0.43;73.90;100213.53;5052556;28;20219;-55
2022/01/20 02:34:04;;;;;;;32.83;22.90;;;;;;;-0.40;73.66;100217.16;5052166;28;20196;-55
2022/01/20 02:36:31;;;;;;;46.23;29.60;;;;;;;-0.41;73.31;100219.59;5052307;28;20202;-56
2022/01/20 02:39:11;;;;;;;43.30;27.17;;;;;;;-0.51;72.25;100207.06;5052048;28;20246;-56
2022/01/20 02:44:51;;;;;;;42.13;27.13;;;;;;;-0.62;73.78;100214.78;5052229;28;20199;-55
2022/01/20 02:47:19;;;;;;;44.47;29.97;;;;;;;-0.71;73.60;100206.53;5052056;28;20196;-55
2022/01/20 02:49:46;;;;;;;54.07;33.37;;;;;;;-0.62;74.50;100194.59;5051714;28;20223;-55
2022/01/20 02:52:13;;;;;;;59.03;37.60;;;;;;;-0.77;73.97;100173.31;5051646;28;20291;-55
2022/01/20 02:54:41;;;;;;;62.70;40.63;;;;;;;-0.67;73.72;100200.97;5051866;28;20199;-55
2022/01/20 02:57:08;;;;;;;66.97;43.77;;;;;;;-0.61;73.89;100195.47;5051589;28;20199;-55
2022/01/20 02:59:35;;;;;;;66.30;43.37;;;;;;;-0.59;74.41;100193.94;5051556;28;20279;-56
2022/01/20 03:02:04;;;;;;;91.90;54.58;;;;;;;-0.56;73.83;100186.56;5051428;28;20456;-55
2022/01/20 03:04:31;;;;;;;76.20;48.87;;;;;;;-0.54;74.69;100186.66;5051873;28;20192;-56
2022/01/20 03:06:58;;;;;;;82.80;49.93;;;;;;;-0.50;74.58;100184.50;5051510;28;20587;-55
2022/01/20 03:09:26;;;;;;;81.80;48.50;;;;;;;-0.50;73.97;100189.53;5067087;28;20286;-56
2022/01/20 03:11:54;;;;;;;78.10;50.50;;;;;;;-0.47;73.81;100187.22;5071345;28;20203;-55
2022/01/20 03:14:21;;;;;;;80.57;49.87;;;;;;;-0.43;73.89;100184.13;5071498;28;20202;-55
2022/01/20 03:16:49;;;;;;;77.80;50.63;;;;;;;-0.47;73.64;100176.25;5071029;28;20448;-56
2022/01/20 03:19:17;;;;;;;68.10;42.43;;;;;;;-0.42;73.71;100177.44;5071201;28;20442;-56
2022/01/20 03:21:45;;;;;;;67.33;41.13;;;;;;;-0.53;73.77;100176.69;5071234;28;20274;-56
2022/01/20 03:24:12;;;;;;;66.63;40.40;;;;;;;-0.46;74.32;100176.34;5070105;28;20198;-56
2022/01/20 03:26:40;;;;;;;69.23;40.70;;;;;;;-0.45;74.92;100174.69;5071096;28;20195;-56
2022/01/20 03:29:09;;;;;;;63.87;40.93;;;;;;;-0.44;73.94;100168.91;5070875;28;20243;-56
2022/01/20 03:31:37;;;;;;;66.47;40.33;;;;;;;-0.39;74.12;100176.03;5070720;28;20211;-56
2022/01/20 03:34:04;;;;;;;68.97;40.17;;;;;;;-0.38;74.47;100170.19;5070872;28;20195;-56
2022/01/20 03:36:31;;;;;;;65.57;40.80;;;;;;;-0.35;73.56;100164.47;5070831;28;20191;-55
2022/01/20 03:38:58;;;;;;;58.77;40.87;;;;;;;-0.40;74.61;100166.69;5070912;28;20195;-55
2022/01/20 03:41:25;;;;;;;66.60;41.83;;;;;;;-0.35;74.13;100162.81;5070733;28;20192;-55
2022/01/20 03:43:52;;;;;;;60.33;39.63;;;;;;;-0.27;73.74;100170.91;5061621;28;20199;-56
2022/01/20 03:46:20;;;;;;;66.13;40.60;;;;;;;-0.27;73.36;100163.34;5070697;28;20199;-56
2022/01/20 03:48:52;;;;;;;59.10;38.23;;;;;;;-0.33;73.64;100170.53;5070639;28;20191;-57
2022/01/20 03:51:22;;;;;;;61.50;35.57;;;;;;;-0.30;73.42;100165.69;5070491;28;20306;-56
2022/01/20 03:53:50;;;;;;;60.53;35.87;;;;;;;-0.31;74.04;100161.41;5070596;28;20583;-56
2022/01/20 03:56:18;;;;;;;57.30;34.17;;;;;;;-0.25;73.59;100160.16;5070366;28;20195;-56
2022/01/20 03:58:45;;;;;;;56.87;34.37;;;;;;;-0.26;72.71;100160.06;5070246;28;20187;-56
2022/01/20 04:01:14;;;;;;;61.35;39.35;;;;;;;-0.28;73.23;100167.53;5070128;28;20931;-56
2022/01/20 04:03:43;;;;;;;48.90;33.13;;;;;;;-0.32;72.43;100175.66;5070599;28;20192;-56
2022/01/20 04:06:10;;;;;;;43.20;29.40;;;;;;;-0.42;73.00;100169.88;5070661;28;20192;-56
2022/01/20 04:08:39;;;;;;;48.27;28.93;;;;;;;-0.45;73.55;100170.53;5070665;28;20319;-56
2022/01/20 04:11:08;;;;;;;39.63;25.57;;;;;;;-0.49;72.56;100171.09;5070594;28;20215;-56
2022/01/20 04:13:35;;;;;;;44.27;27.50;;;;;;;-0.54;73.05;100157.28;5070395;28;20203;-56
2022/01/20 04:16:12;;;;;;;41.53;26.20;;;;;;;-0.58;73.11;100164.53;5070408;28;20673;-56
2022/01/20 04:18:40;;;;;;;38.63;25.40;;;;;;;-0.57;72.92;100162.09;5070288;28;20202;-56
2022/01/20 04:21:08;;;;;;;45.57;27.07;;;;;;;-0.65;73.70;100164.09;5070214;28;20283;-56
2022/01/20 04:23:35;;;;;;;37.43;25.33;;;;;;;-0.72;73.26;100161.91;5070585;28;20205;-56
2022/01/20 04:26:02;;;;;;;38.80;24.77;;;;;;;-0.71;73.26;100158.59;5067738;28;20195;-56
2022/01/20 04:28:29;;;;;;;43.63;26.40;;;;;;;-0.73;73.19;100159.28;5069593;28;20234;-56
2022/01/20 04:30:55;;;;;;;43.80;26.70;;;;;;;-0.79;73.48;100148.75;5073558;28;20294;-55
2022/01/20 04:33:22;;;;;;;36.60;24.53;;;;;;;-0.74;73.80;100157.50;5069593;28;20286;-56
2022/01/20 04:35:49;;;;;;;39.30;25.83;;;;;;;-0.74;74.26;100171.00;5069693;28;20618;-56
2022/01/20 04:38:18;;;;;;;37.97;25.47;;;;;;;-0.74;73.57;100167.59;5069803;28;20230;-56
2022/01/20 04:40:45;;;;;;;40.20;25.70;;;;;;;-0.73;73.95;100161.78;5069816;28;20278;-56
2022/01/20 04:43:12;;;;;;;52.63;29.03;;;;;;;-0.75;73.77;100165.88;5070088;28;20685;-57
2022/01/20 04:45:44;;;;;;;51.17;28.90;;;;;;;-0.81;74.35;100161.25;5069923;28;20227;-56
2022/01/20 04:48:24;;;;;;;51.37;29.80;;;;;;;-0.80;73.93;100159.63;5070147;28;20682;-57
2022/01/20 04:59:05;;;;;;;62.07;34.30;;;;;;;-0.99;74.82;100159.94;5069673;28;20198;-57
2022/01/20 05:01:32;;;;;;;45.57;28.27;;;;;;;-1.12;75.13;100152.25;5069944;28;20205;-57
2022/01/20 05:04:01;;;;;;;40.17;26.80;;;;;;;-1.35;76.61;100149.72;5069918;28;20593;-56
2022/01/20 05:06:28;;;;;;;51.90;27.63;;;;;;;-1.39;76.52;100146.09;5069543;28;20698;-56
2022/01/20 05:08:57;;;;;;;44.17;26.70;;;;;;;-1.44;76.15;100149.03;5069555;28;20196;-56
2022/01/20 05:11:24;;;;;;;36.10;25.63;;;;;;;-1.60;76.79;100149.56;5069430;28;20273;-57
2022/01/20 05:13:51;;;;;;;48.87;28.87;;;;;;;-1.59;77.20;100155.50;5069423;28;20196;-56
2022/01/20 05:16:18;;;;;;;49.87;32.27;;;;;;;-1.66;77.62;100163.34;5070097;28;20275;-56
2022/01/20 05:18:44;;;;;;;86.77;48.80;;;;;;;-1.80;77.35;100169.88;5070201;28;20279;-57
2022/01/20 05:21:11;;;;;;;93.20;52.50;;;;;;;-1.89;77.76;100165.00;5069120;28;20187;-57
2022/01/20 05:23:38;;;;;;;84.63;50.33;;;;;;;-1.87;78.22;100158.44;5069571;28;20206;-56
2022/01/20 05:26:06;;;;;;;79.53;50.70;;;;;;;-1.77;78.32;100170.09;5069718;28;20318;-56
2022/01/20 05:28:34;;;;;;;79.53;48.93;;;;;;;-1.68;78.29;100168.28;5069040;28;20231;-57
2022/01/20 05:31:00;;;;;;;62.63;40.10;;;;;;;-1.64;77.62;100152.63;5069283;28;20717;-55
2022/01/20 05:33:28;;;;;;;58.27;38.13;;;;;;;-1.59;77.22;100150.47;5069271;28;20194;-56
2022/01/20 05:35:55;;;;;;;71.50;42.20;;;;;;;-1.54;77.08;100149.16;5069234;28;20195;-56
2022/01/20 05:38:22;;;;;;;59.77;35.07;;;;;;;-1.40;76.97;100156.09;5069704;28;20194;-56
2022/01/20 05:40:49;;;;;;;63.13;38.67;;;;;;;-1.38;75.85;100163.00;5069112;28;20191;-56
2022/01/20 05:43:17;;;;;;;74.27;45.27;;;;;;;-1.64;75.38;100109.78;5069151;28;20191;-56
2022/01/20 05:45:44;;;;;;;69.93;43.97;;;;;;;-1.39;75.97;100161.22;5069164;28;20188;-56
2022/01/20 05:48:15;;;;;;;68.70;43.40;;;;;;;-1.31;76.00;100154.22;5072289;28;20195;-56
2022/01/20 05:50:43;;;;;;;68.13;40.33;;;;;;;-1.24;76.29;100156.44;5072552;28;20265;-56
2022/01/20 05:53:10;;;;;;;56.77;34.60;;;;;;;-1.17;75.90;100152.69;5073076;28;20191;-56
2022/01/20 05:55:38;;;;;;;55.27;32.30;;;;;;;-1.16;75.35;100154.44;5071084;28;20188;-56
2022/01/20 05:58:07;;;;;;;53.03;31.57;;;;;;;-1.14;75.19;100143.72;5068041;28;20203;-56
2022/01/20 06:00:36;;;;;;;54.57;31.93;;;;;;;-1.13;74.91;100134.50;5068648;28;20273;-56
2022/01/20 06:05:47;;;;;;;46.17;31.07;;;;;;;-1.08;74.29;100140.75;5069354;28;20688;-57
2022/01/20 06:08:14;;;;;;;52.57;30.57;;;;;;;-1.15;74.35;100136.91;5072403;28;20678;-57
2022/01/20 06:10:41;;;;;;;52.23;30.57;;;;;;;-1.22;74.52;100134.72;5072525;28;20306;-56
2022/01/20 06:13:09;;;;;;;44.60;29.83;;;;;;;-1.12;74.69;100136.25;5072486;28;20191;-57
2022/01/20 06:15:38;;;;;;;52.53;31.03;;;;;;;-1.32;75.07;100134.84;5072026;28;20191;-56
2022/01/20 06:18:05;;;;;;;55.90;32.83;;;;;;;-1.51;76.07;100134.25;5071772;28;20900;-56
2022/01/20 06:20:33;;;;;;;46.83;30.43;;;;;;;-1.45;75.81;100127.13;5071605;28;20191;-56
2022/01/20 06:23:00;;;;;;;59.80;35.27;;;;;;;-1.41;76.24;100121.56;5069239;28;20203;-56
2022/01/20 06:25:27;;;;;;;54.37;34.87;;;;;;;-1.32;76.79;100127.28;5070175;28;20199;-56
2022/01/20 06:27:53;;;;;;;58.47;33.33;;;;;;;-1.30;76.33;100133.28;5069261;28;20187;-57
2022/01/20 06:30:21;;;;;;;54.93;35.27;;;;;;;-1.27;75.83;100129.38;5068461;28;20212;-56
2022/01/20 06:32:50;;;;;;;67.30;37.03;;;;;;;-1.28;75.66;100136.78;5070877;28;20290;-56
2022/01/20 06:35:16;;;;;;;59.80;37.73;;;;;;;-1.23;76.20;100127.91;5063139;28;20205;-56
2022/01/20 06:37:44;;;;;;;53.97;36.37;;;;;;;-1.18;75.22;100124.06;5071571;28;20206;-57
2022/01/20 06:40:12;;;;;;;55.57;34.60;;;;;;;-1.10;75.40;100134.75;5064977;28;21073;-57
2022/01/20 06:42:39;;;;;;;57.63;36.17;;;;;;;-1.05;75.78;100134.28;5068820;28;20195;-57
2022/01/20 06:45:08;;;;;;;61.43;35.70;;;;;;;-1.20;74.78;100121.47;5071366;28;20286;-57
2022/01/20 06:47:35;;;;;;;47.63;32.70;;;;;;;-1.17;75.34;100135.94;5067611;28;20283;-56
2022/01/20 06:50:04;;;;;;;61.17;35.70;;;;;;;-1.05;75.75;100144.38;5064650;28;20194;-57
2022/01/20 06:52:31;;;;;;;50.67;33.60;;;;;;;-0.92;74.78;100136.03;5066409;28;20251;-56
2022/01/20 06:55:00;;;;;;;60.07;37.30;;;;;;;-0.83;73.93;100134.19;5070708;28;20202;-57
2022/01/20 06:57:27;;;;;;;58.53;34.10;;;;;;;-0.82;74.04;100124.19;5070181;28;20200;-56
2022/01/20 06:59:54;;;;;;;49.27;31.83;;;;;;;-0.68;73.89;100138.66;5066152;28;20631;-56
2022/01/20 07:02:21;;;;;;;55.50;34.67;;;;;;;-0.62;73.36;100138.19;5068139;28;20195;-56
2022/01/20 07:04:48;;;;;;;47.90;30.33;;;;;;;-0.47;73.76;100135.88;5065948;28;20188;-57
2022/01/20 07:07:16;;;;;;;45.00;27.87;;;;;;;-0.35;73.12;100137.59;5064471;28;20287;-56
2022/01/20 07:09:44;;;;;;;45.07;29.30;;;;;;;-0.49;72.02;100094.50;5070509;28;20219;-56
2022/01/20 07:12:11;;;;;;;43.07;27.43;;;;;;;-0.15;72.39;100133.91;5070537;28;20225;-56
2022/01/20 07:14:39;;;;;;;40.90;27.20;;;;;;;-0.05;71.76;100134.63;5067825;28;20199;-57
2022/01/20 07:17:06;;;;;;;41.57;26.87;;;;;;;0.02;71.51;100137.56;5064059;28;20559;-57
2022/01/20 07:19:34;;;;;;;44.40;27.60;;;;;;;0.11;70.59;100125.56;5070393;28;20188;-58
2022/01/20 07:22:02;;;;;;;47.90;31.70;;;;;;;0.23;70.30;100129.78;5067468;28;20532;-57
2022/01/20 07:24:30;;;;;;;44.97;30.07;;;;;;;0.45;70.27;100137.13;5070558;28;20198;-57
2022/01/20 07:26:58;;;;;;;54.77;30.47;;;;;;;0.53;69.32;100119.16;5068655;28;20226;-57
2022/01/20 07:29:25;;;;;;;45.37;28.83;;;;;;;0.57;68.35;100093.31;5069825;28;20271;-56
2022/01/20 07:31:52;;;;;;;53.37;30.37;;;;;;;0.70;68.86;100109.25;5069456;28;20223;-56
2022/01/20 07:34:19;;;;;;;51.00;32.53;;;;;;;0.74;68.66;100102.00;5065651;28;20191;-56
2022/01/20 07:36:46;;;;;;;55.93;31.53;;;;;;;0.79;68.78;100099.75;5068338;28;20195;-59
2022/01/20 07:39:13;;;;;;;61.73;35.87;;;;;;;0.86;67.80;100105.28;5068643;28;20198;-60
2022/01/20 07:41:42;;;;;;;59.90;36.27;;;;;;;0.93;67.34;100096.44;5069530;28;20222;-60
2022/01/20 07:44:09;;;;;;;59.73;35.37;;;;;;;1.00;67.83;100096.03;5070019;28;20219;-59
2022/01/20 07:46:36;;;;;;;53.83;32.63;;;;;;;1.06;66.88;100101.50;5073513;28;20633;-60
2022/01/20 07:49:03;;;;;;;52.83;32.70;;;;;;;1.13;66.54;100099.44;5069001;28;20627;-59
2022/01/20 07:51:30;;;;;;;59.50;34.67;;;;;;;1.10;65.80;100101.78;5072203;28;20949;-59
2022/01/20 07:53:57;;;;;;;49.13;33.40;;;;;;;1.11;66.51;100097.59;5071871;28;20192;-60
2022/01/20 07:56:24;;;;;;;54.13;34.40;;;;;;;1.19;66.18;100094.75;5071095;28;20192;-59
2022/01/20 07:58:53;;;;;;;58.03;34.20;;;;;;;1.24;65.30;100084.91;5069431;28;20209;-59
2022/01/20 08:01:24;;;;;;;54.70;35.70;;;;;;;1.36;65.24;100094.94;5069343;28;20215;-59
2022/01/20 08:03:51;;;;;;;55.63;34.30;;;;;;;1.37;64.79;100099.22;5070895;28;20192;-59
2022/01/20 08:06:18;;;;;;;51.10;34.20;;;;;;;1.42;64.49;100100.38;5075105;28;20204;-59
2022/01/20 08:08:45;;;;;;;59.90;34.03;;;;;;;1.46;64.56;100100.66;5069931;28;20202;-59
2022/01/20 08:11:12;;;;;;;58.43;34.20;;;;;;;1.35;64.83;100094.03;5068449;28;20219;-59
2022/01/20 08:13:39;;;;;;;56.40;35.23;;;;;;;1.30;64.67;100092.91;5067107;28;20282;-59
2022/01/20 08:16:08;;;;;;;57.97;36.30;;;;;;;1.32;64.88;100098.91;5069405;28;20716;-58
2022/01/20 08:18:35;;;;;;;65.90;39.47;;;;;;;1.50;65.52;100105.13;5069748;28;20488;-61
2022/01/20 08:21:02;;;;;;;75.93;45.63;;;;;;;1.51;65.36;100089.13;5068025;28;20638;-59
2022/01/20 08:23:29;;;;;;;83.03;45.63;;;;;;;1.36;65.53;100088.22;5069545;28;20570;-60
2022/01/20 08:25:56;;;;;;;76.17;46.77;;;;;;;1.40;65.62;100091.81;5069867;28;20684;-60
2022/01/20 08:28:23;;;;;;;76.20;44.63;;;;;;;1.45;65.21;100096.38;5069221;28;20223;-59
2022/01/20 08:30:51;;;;;;;67.17;41.33;;;;;;;1.48;65.03;100096.56;5069505;28;20184;-59
2022/01/20 08:33:19;;;;;;;65.63;38.23;;;;;;;1.42;64.75;100095.31;5069241;28;20972;-59
2022/01/20 08:35:47;;;;;;;70.00;41.87;;;;;;;1.39;65.37;100088.41;5068403;28;20280;-59
2022/01/20 08:38:14;;;;;;;69.03;43.87;;;;;;;1.41;66.21;100088.50;5071723;28;20274;-59
2022/01/20 08:40:41;;;;;;;65.57;40.20;;;;;;;1.46;65.50;100089.63;5074312;28;20194;-59
2022/01/20 08:43:08;;;;;;;57.33;36.47;;;;;;;1.57;65.31;100088.63;5068627;28;20283;-57
2022/01/20 08:45:37;;;;;;;65.37;35.03;;;;;;;1.65;64.44;100085.78;5069228;28;20234;-56
2022/01/20 08:48:04;;;;;;;58.90;33.07;;;;;;;1.77;63.91;100084.00;5069804;28;20282;-56
2022/01/20 08:50:34;;;;;;;59.43;33.60;;;;;;;1.87;63.26;100080.34;5069613;28;20192;-57
2022/01/20 08:53:00;;;;;;;58.03;34.10;;;;;;;2.04;62.65;100063.59;5069491;28;20251;-56
2022/01/20 08:55:28;;;;;;;59.08;40.15;;;;;;;2.26;61.76;100074.22;5068334;28;20441;-56
2022/01/20 08:57:55;;;;;;;63.67;33.07;;;;;;;2.44;60.67;100062.63;5069729;28;20196;-56
2022/01/20 09:00:25;;;;;;;64.93;33.87;;;;;;;2.55;60.02;100075.91;5069403;28;20195;-56
2022/01/20 09:02:51;;;;;;;58.17;35.57;;;;;;;2.45;59.88;100081.22;5069942;28;20191;-57
2022/01/20 09:05:18;;;;;;;57.40;36.20;;;;;;;2.51;60.16;100081.56;5070939;28;20729;-56
2022/01/20 09:07:47;;;;;;;59.17;36.33;;;;;;;2.57;59.75;100084.47;5069246;28;20192;-57
2022/01/20 09:10:19;;;;;;;59.97;37.37;;;;;;;2.64;59.04;100097.56;5074589;28;20183;-56
2022/01/20 09:15:31;;;;;;;60.30;36.57;;;;;;;2.79;58.52;100093.38;5075088;28;20237;-56
2022/01/20 09:18:01;;;;;;;60.77;35.00;;;;;;;2.74;58.23;100097.31;5069444;28;20199;-56
2022/01/20 09:20:30;;;;;;;52.23;36.20;;;;;;;2.80;58.28;100091.72;5069834;28;20199;-56
2022/01/20 09:22:59;;;;;;;68.97;34.60;;;;;;;2.91;58.23;100077.97;5070568;28;20648;-57
2022/01/20 09:25:27;;;;;;;69.87;35.73;;;;;;;3.10;57.80;100075.66;5072804;28;20607;-56
2022/01/20 09:27:56;;;;;;;58.33;34.43;;;;;;;3.23;56.78;100075.53;5072457;28;20195;-56
2022/01/20 09:30:25;;;;;;;58.77;34.43;;;;;;;3.29;56.38;100068.25;5074753;28;20253;-57
2022/01/20 09:33:12;;;;;;;60.07;36.33;;;;;;;3.38;56.13;100057.66;5077929;28;20214;-57
2022/01/20 09:35:40;;;;;;;60.00;35.27;;;;;;;3.48;55.31;100057.38;5074145;28;20198;-57
2022/01/20 09:38:09;;;;;;;57.60;36.23;;;;;;;3.47;55.30;100053.97;5076998;28;20191;-56
2022/01/20 09:40:37;;;;;;;60.10;35.97;;;;;;;3.54;55.62;100050.09;5072907;28;20677;-56
2022/01/20 09:43:05;;;;;;;53.50;34.30;;;;;;;3.65;56.00;100043.03;5072936;28;20196;-56
2022/01/20 09:45:32;;;;;;;58.90;37.00;;;;;;;3.80;55.80;100026.91;5073056;28;20198;-60
2022/01/20 09:48:00;;;;;;;63.40;37.73;;;;;;;4.01;54.55;100022.88;5072737;28;20192;-60
2022/01/20 09:50:27;;;;;;;62.30;36.37;;;;;;;4.04;55.02;100010.34;5072858;28;20219;-60
2022/01/20 09:52:58;;;;;;;68.80;40.93;;;;;;;4.16;53.90;99999.91;5072427;28;20226;-56
2022/01/20 09:55:27;;;;;;;69.73;41.27;;;;;;;4.25;53.91;99990.19;5072535;28;20689;-55
2022/01/20 09:57:54;;;;;;;68.83;43.30;;;;;;;4.42;53.36;99988.47;5072701;28;20199;-56
2022/01/20 10:00:22;;;;;;;78.23;44.63;;;;;;;4.53;53.91;99980.53;5072660;28;20200;-57
2022/01/20 10:02:54;;;;;;;76.37;43.30;;;;;;;4.64;52.88;99981.06;5072876;28;20198;-56
2022/01/20 10:05:30;;;;;;;65.70;42.63;;;;;;;4.56;52.98;99973.03;5072836;28;20196;-56
2022/01/20 10:08:07;;;;;;;71.37;42.60;;;;;;;4.58;52.08;99960.41;5072331;28;20204;-56
2022/01/20 10:10:44;;;;;;;67.20;43.53;;;;;;;4.65;52.66;99958.22;5072310;28;20244;-56
2022/01/20 10:13:12;;;;;;;79.43;44.43;;;;;;;4.68;51.99;99958.38;5071627;28;20567;-57
2022/01/20 10:15:40;;;;;;;74.53;43.33;;;;;;;4.72;51.06;99944.13;5072134;28;20635;-57
2022/01/20 10:18:09;;;;;;;71.80;44.73;;;;;;;4.72;50.50;99941.56;5072509;28;20191;-57
2022/01/20 10:20:36;;;;;;;66.70;42.13;;;;;;;4.67;50.39;99935.38;5072168;28;20200;-57
2022/01/20 10:23:04;;;;;;;73.60;42.47;;;;;;;4.71;51.35;99930.50;5071201;28;20189;-58
2022/01/20 10:25:36;;;;;;;73.33;42.13;;;;;;;4.64;51.63;99930.16;5071458;28;20680;-58
2022/01/20 10:28:04;;;;;;;64.57;43.43;;;;;;;4.68;51.64;99930.38;5068752;28;20644;-57
2022/01/20 10:30:33;;;;;;;65.10;42.50;;;;;;;4.69;52.00;99928.69;5071762;28;20192;-58
2022/01/20 10:33:03;;;;;;;78.10;43.77;;;;;;;4.73;51.81;99907.66;5070576;28;20223;-58
2022/01/20 10:35:34;;;;;;;64.93;43.13;;;;;;;4.72;51.23;99909.34;5071503;28;20655;-58
2022/01/20 10:38:11;;;;;;;78.10;46.87;;;;;;;4.81;51.33;99906.34;5071632;28;20555;-59
2022/01/20 10:40:47;;;;;;;82.80;50.47;;;;;;;4.68;52.73;99907.47;5071311;28;20200;-59
2022/01/20 10:43:22;;;;;;;76.60;47.37;;;;;;;4.47;52.14;99872.53;5071171;28;20226;-58
2022/01/20 10:45:49;;;;;;;76.83;48.90;;;;;;;4.75;51.81;99901.00;5069489;28;20523;-58
2022/01/20 10:48:20;;;;;;;85.67;50.30;;;;;;;4.78;52.12;99888.38;5071191;28;20714;-57
2022/01/20 10:50:47;;;;;;;85.80;51.53;;;;;;;4.78;52.86;99852.75;5067134;28;20200;-57
2022/01/20 10:53:19;;;;;;;79.63;46.73;;;;;;;5.03;52.98;99877.59;5070176;28;20329;-58
2022/01/20 10:55:45;;;;;;;79.13;50.00;;;;;;;4.99;52.10;99871.53;5068932;28;20191;-59
2022/01/20 10:58:15;;;;;;;73.77;48.37;;;;;;;4.93;52.59;99866.16;5071093;28;20192;-57
2022/01/20 11:00:45;;;;;;;72.93;45.07;;;;;;;5.09;51.41;99857.50;5070726;28;20191;-58
2022/01/20 11:03:12;;;;;;;78.30;42.90;;;;;;;5.13;52.22;99852.66;5070828;28;20190;-58
2022/01/20 11:05:40;;;;;;;77.60;43.10;;;;;;;5.30;51.38;99856.75;5071071;28;20200;-57
2022/01/20 11:08:08;;;;;;;63.37;40.30;;;;;;;5.39;51.15;99851.19;5071006;28;20185;-56
2022/01/20 11:10:37;;;;;;;52.17;34.97;;;;;;;5.50;50.60;99847.41;5070617;28;20585;-58
2022/01/20 11:13:04;;;;;;;54.80;33.83;;;;;;;5.52;50.81;99842.41;5067713;28;20213;-58
2022/01/20 11:15:31;;;;;;;52.27;31.10;;;;;;;5.66;51.88;99841.28;5075126;28;20608;-58
2022/01/20 11:18:00;;;;;;;44.70;29.80;;;;;;;5.82;51.20;99836.00;5070847;28;20216;-57
2022/01/20 11:20:30;;;;;;;40.77;26.67;;;;;;;5.75;50.88;99839.09;5070794;28;20684;-58
2022/01/20 11:22:59;;;;;;;36.23;26.47;;;;;;;5.85;51.38;99833.63;5071363;28;20205;-57
2022/01/20 11:25:29;;;;;;;36.67;25.70;;;;;;;5.93;50.73;99835.63;5071024;28;20205;-58
2022/01/20 11:28:04;;;;;;;39.27;25.27;;;;;;;5.94;50.18;99828.84;5057191;28;20206;-58
2022/01/20 11:30:33;;;;;;;39.27;26.67;;;;;;;5.89;50.35;99832.91;5051194;28;20216;-58
2022/01/20 11:33:05;;;;;;;42.77;27.57;;;;;;;5.74;51.13;99819.53;5051105;28;20212;-59
2022/01/20 11:35:37;;;;;;;49.70;31.17;;;;;;;5.72;50.53;99816.91;5068198;28;20189;-58
2022/01/20 11:38:04;;;;;;;49.27;29.20;;;;;;;5.72;50.53;99804.16;5079293;28;20188;-58
2022/01/20 11:40:31;;;;;;;40.03;28.20;;;;;;;5.83;50.67;99812.22;5070293;28;20270;-58
2022/01/20 11:43:03;;;;;;;41.97;24.53;;;;;;;5.94;50.84;99811.00;5066914;28;20655;-58
2022/01/20 11:45:33;;;;;;;42.40;25.30;;;;;;;6.02;49.87;99813.84;5069546;28;20293;-58
2022/01/20 11:48:11;;;;;;;36.03;23.53;;;;;;;6.02;49.69;99801.97;5070482;28;20249;-59
2022/01/20 11:50:39;;;;;;;37.33;22.87;;;;;;;6.02;48.90;99794.31;5069291;28;20208;-59
2022/01/20 11:53:11;;;;;;;43.53;23.30;;;;;;;5.97;49.56;99779.66;5069935;28;20211;-59
2022/01/20 11:55:44;;;;;;;41.83;23.53;;;;;;;6.00;48.61;99792.53;5070433;28;20191;-58
2022/01/20 11:58:11;;;;;;;43.50;24.47;;;;;;;5.93;49.25;99784.63;5067947;28;20184;-59
2022/01/20 12:00:38;;;;;;;33.00;22.47;;;;;;;6.14;49.14;99782.06;5069855;28;20191;-58
2022/01/20 12:03:12;;;;;;;32.10;22.37;;;;;;;6.31;48.75;99777.59;5069543;28;20184;-58
2022/01/20 12:05:40;;;;;;;35.35;24.45;;;;;;;6.34;48.56;99775.16;5069488;28;20970;-59